sensor_id;sensor_type;location;lat;lon;timestamp;pressure;altitude;pressure_sealevel;temperature;humidity
63946;BME280;50122;56.330;43.838;2023-07-20T18:18:13;99355.06;;;13.68;100.00
63946;BME280;50122;56.330;43.838;2023-07-20T18:20:46;99353.34;;;13.67;100.00
63946;BME280;50122;56.330;43.838;2023-07-20T18:23:12;99351.19;;;13.72;100.00
63946;BME280;50122;56.330;43.838;2023-07-20T18:25:41;99343.03;;;13.75;100.00
63946;BME280;50122;56.330;43.838;2023-07-20T18:28:23;99346.31;;;13.79;100.00
63946;BME280;50122;56.330;43.838;2023-07-20T18:30:50;99346.94;;;13.82;100.00
63946;BME280;50122;56.330;43.838;2023-07-20T18:33:17;99343.31;;;13.83;100.00
63946;BME280;50122;56.330;43.838;2023-07-20T18:35:47;99335.13;;;13.86;100.00
63946;BME280;50122;56.330;43.838;2023-07-20T18:38:14;99343.63;;;13.92;100.00
63946;BME280;50122;56.330;43.838;2023-07-20T18:40:45;99353.06;;;13.96;100.00
63946;BME280;50122;56.330;43.838;2023-07-20T18:43:11;99364.53;;;13.96;100.00
63946;BME280;50122;56.330;43.838;2023-07-20T18:45:38;99362.94;;;13.94;100.00
63946;BME280;50122;56.330;43.838;2023-07-20T18:48:08;99358.72;;;13.91;100.00
63946;BME280;50122;56.330;43.838;2023-07-20T18:50:35;99363.38;;;13.87;100.00
63946;BME280;50122;56.330;43.838;2023-07-20T18:53:02;99359.91;;;13.87;100.00
63946;BME280;50122;56.330;43.838;2023-07-20T18:55:34;99362.44;;;13.88;100.00
63946;BME280;50122;56.330;43.838;2023-07-20T18:58:07;99359.03;;;13.86;100.00
63946;BME280;50122;56.330;43.838;2023-07-20T19:00:35;99359.13;;;13.85;100.00
63946;BME280;50122;56.330;43.838;2023-07-20T19:03:02;99358.31;;;13.84;100.00
63946;BME280;50122;56.330;43.838;2023-07-20T19:05:33;99348.84;;;13.80;100.00
63946;BME280;50122;56.330;43.838;2023-07-20T19:08:07;99346.44;;;13.77;100.00
63946;BME280;50122;56.330;43.838;2023-07-20T19:10:33;99347.94;;;13.68;100.00
63946;BME280;50122;56.330;43.838;2023-07-20T19:13:06;99351.25;;;13.59;100.00
63946;BME280;50122;56.330;43.838;2023-07-20T19:15:47;99344.03;;;13.61;100.00
63946;BME280;50122;56.330;43.838;2023-07-20T19:18:26;99352.44;;;13.55;100.00
63946;BME280;50122;56.330;43.838;2023-07-20T19:21:00;99350.31;;;13.47;100.00
63946;BME280;50122;56.330;43.838;2023-07-20T19:23:33;99354.88;;;13.45;100.00
63946;BME280;50122;56.330;43.838;2023-07-20T19:26:05;99347.38;;;13.39;100.00
63946;BME280;50122;56.330;43.838;2023-07-20T19:28:35;99349.38;;;13.35;100.00
63946;BME280;50122;56.330;43.838;2023-07-20T19:31:05;99352.69;;;13.39;100.00
63946;BME280;50122;56.330;43.838;2023-07-20T19:33:35;99352.34;;;13.44;100.00
63946;BME280;50122;56.330;43.838;2023-07-20T19:36:02;99356.38;;;13.49;100.00
63946;BME280;50122;56.330;43.838;2023-07-20T19:38:29;99354.97;;;13.57;100.00
63946;BME280;50122;56.330;43.838;2023-07-20T19:40:56;99366.44;;;13.57;100.00
63946;BME280;50122;56.330;43.838;2023-07-20T19:43:23;99370.47;;;13.63;100.00
63946;BME280;50122;56.330;43.838;2023-07-20T19:45:50;99370.13;;;13.67;100.00
63946;BME280;50122;56.330;43.838;2023-07-20T19:48:18;99371.72;;;13.70;100.00
63946;BME280;50122;56.330;43.838;2023-07-20T19:50:49;99375.84;;;13.74;100.00
63946;BME280;50122;56.330;43.838;2023-07-20T19:53:35;99374.81;;;13.77;100.00
63946;BME280;50122;56.330;43.838;2023-07-20T19:56:02;99381.78;;;13.78;100.00
63946;BME280;50122;56.330;43.838;2023-07-20T19:58:34;99382.44;;;13.81;100.00
63946;BME280;50122;56.330;43.838;2023-07-20T20:01:02;99379.66;;;13.83;100.00
63946;BME280;50122;56.330;43.838;2023-07-20T20:03:33;99380.94;;;13.77;100.00
63946;BME280;50122;56.330;43.838;2023-07-20T20:06:03;99378.50;;;13.74;100.00
63946;BME280;50122;56.330;43.838;2023-07-20T20:08:30;99386.25;;;13.77;100.00
63946;BME280;50122;56.330;43.838;2023-07-20T20:10:58;99384.66;;;13.75;100.00
63946;BME280;50122;56.330;43.838;2023-07-20T20:13:28;99389.97;;;13.75;100.00
63946;BME280;50122;56.330;43.838;2023-07-20T20:16:00;99387.44;;;13.73;100.00
63946;BME280;50122;56.330;43.838;2023-07-20T20:18:32;99391.03;;;13.72;100.00
63946;BME280;50122;56.330;43.838;2023-07-20T20:21:08;99395.50;;;13.71;100.00
63946;BME280;50122;56.330;43.838;2023-07-20T20:23:37;99392.25;;;13.68;100.00
63946;BME280;50122;56.330;43.838;2023-07-20T20:26:14;99396.78;;;13.66;100.00
63946;BME280;50122;56.330;43.838;2023-07-20T20:28:44;99397.97;;;13.62;100.00
63946;BME280;50122;56.330;43.838;2023-07-20T20:31:13;99400.94;;;13.57;100.00
63946;BME280;50122;56.330;43.838;2023-07-20T20:33:40;99400.84;;;13.59;100.00
63946;BME280;50122;56.330;43.838;2023-07-20T20:36:10;99403.38;;;13.60;100.00
63946;BME280;50122;56.330;43.838;2023-07-20T20:38:37;99410.28;;;13.63;100.00
63946;BME280;50122;56.330;43.838;2023-07-20T20:41:05;99411.13;;;13.63;100.00
63946;BME280;50122;56.330;43.838;2023-07-20T20:43:41;99412.22;;;13.61;100.00
63946;BME280;50122;56.330;43.838;2023-07-20T20:46:10;99415.06;;;13.58;100.00
63946;BME280;50122;56.330;43.838;2023-07-20T20:48:39;99409.13;;;13.54;100.00
63946;BME280;50122;56.330;43.838;2023-07-20T20:51:12;99414.22;;;13.57;100.00
63946;BME280;50122;56.330;43.838;2023-07-20T20:53:39;99419.41;;;13.59;100.00
63946;BME280;50122;56.330;43.838;2023-07-20T20:56:13;99413.28;;;13.58;100.00
63946;BME280;50122;56.330;43.838;2023-07-20T20:58:40;99413.28;;;13.58;100.00
63946;BME280;50122;56.330;43.838;2023-07-20T21:01:09;99410.06;;;13.53;100.00
63946;BME280;50122;56.330;43.838;2023-07-20T21:03:36;99423.34;;;13.53;100.00
63946;BME280;50122;56.330;43.838;2023-07-20T21:06:05;99428.44;;;13.56;100.00
63946;BME280;50122;56.330;43.838;2023-07-20T21:08:32;99416.66;;;13.60;100.00
63946;BME280;50122;56.330;43.838;2023-07-20T21:11:02;99420.19;;;13.61;100.00
63946;BME280;50122;56.330;43.838;2023-07-20T21:13:28;99425.16;;;13.52;100.00
63946;BME280;50122;56.330;43.838;2023-07-20T21:15:58;99435.78;;;13.52;100.00
63946;BME280;50122;56.330;43.838;2023-07-20T21:18:25;99429.09;;;13.47;100.00
63946;BME280;50122;56.330;43.838;2023-07-20T21:20:52;99429.31;;;13.44;100.00
63946;BME280;50122;56.330;43.838;2023-07-20T21:23:21;99431.09;;;13.43;100.00
63946;BME280;50122;56.330;43.838;2023-07-20T21:25:48;99427.38;;;13.46;100.00
63946;BME280;50122;56.330;43.838;2023-07-20T21:28:17;99424.41;;;13.50;100.00
63946;BME280;50122;56.330;43.838;2023-07-20T21:31:00;99428.88;;;13.50;100.00
63946;BME280;50122;56.330;43.838;2023-07-20T21:33:28;99427.06;;;13.50;100.00
63946;BME280;50122;56.330;43.838;2023-07-20T21:35:54;99434.19;;;13.50;100.00
63946;BME280;50122;56.330;43.838;2023-07-20T21:38:21;99430.59;;;13.51;100.00
63946;BME280;50122;56.330;43.838;2023-07-20T21:40:48;99430.38;;;13.54;100.00
63946;BME280;50122;56.330;43.838;2023-07-20T21:43:16;99429.53;;;13.53;99.93
63946;BME280;50122;56.330;43.838;2023-07-20T21:45:45;99430.69;;;13.49;99.70
63946;BME280;50122;56.330;43.838;2023-07-20T21:48:12;99432.69;;;13.46;99.76
63946;BME280;50122;56.330;43.838;2023-07-20T21:50:39;99434.63;;;13.44;99.20
63946;BME280;50122;56.330;43.838;2023-07-20T21:53:12;99432.41;;;13.37;99.00
63946;BME280;50122;56.330;43.838;2023-07-20T21:55:38;99439.28;;;13.40;99.28
63946;BME280;50122;56.330;43.838;2023-07-20T21:58:05;99423.56;;;13.37;99.11
63946;BME280;50122;56.330;43.838;2023-07-20T22:00:32;99434.94;;;13.39;98.47
63946;BME280;50122;56.330;43.838;2023-07-20T22:02:58;99436.72;;;13.38;98.22
63946;BME280;50122;56.330;43.838;2023-07-20T22:05:25;99435.25;;;13.34;97.88
63946;BME280;50122;56.330;43.838;2023-07-20T22:07:52;99438.66;;;13.36;98.53
63946;BME280;50122;56.330;43.838;2023-07-20T22:10:22;99444.81;;;13.37;98.12
63946;BME280;50122;56.330;43.838;2023-07-20T22:12:48;99446.63;;;13.36;98.05
63946;BME280;50122;56.330;43.838;2023-07-20T22:15:17;99445.84;;;13.34;97.98
63946;BME280;50122;56.330;43.838;2023-07-20T22:17:43;99445.94;;;13.33;98.01
63946;BME280;50122;56.330;43.838;2023-07-20T22:20:10;99445.41;;;13.28;98.02
63946;BME280;50122;56.330;43.838;2023-07-20T22:22:39;99449.22;;;13.24;98.14
63946;BME280;50122;56.330;43.838;2023-07-20T22:25:06;99444.88;;;13.23;98.45
63946;BME280;50122;56.330;43.838;2023-07-20T22:27:33;99447.53;;;13.23;98.81
63946;BME280;50122;56.330;43.838;2023-07-20T22:30:00;99449.97;;;13.26;98.58
63946;BME280;50122;56.330;43.838;2023-07-20T22:32:26;99444.44;;;13.29;98.68
63946;BME280;50122;56.330;43.838;2023-07-20T22:34:54;99448.91;;;13.28;98.56
63946;BME280;50122;56.330;43.838;2023-07-20T22:37:22;99451.66;;;13.27;98.13
63946;BME280;50122;56.330;43.838;2023-07-20T22:39:49;99458.78;;;13.26;98.71
63946;BME280;50122;56.330;43.838;2023-07-20T22:42:17;99448.69;;;13.31;98.46
63946;BME280;50122;56.330;43.838;2023-07-20T22:44:43;99454.22;;;13.28;98.41
63946;BME280;50122;56.330;43.838;2023-07-20T22:47:10;99464.00;;;13.28;98.17
63946;BME280;50122;56.330;43.838;2023-07-20T22:49:37;99458.13;;;13.23;98.02
63946;BME280;50122;56.330;43.838;2023-07-20T22:52:04;99460.16;;;13.19;98.04
63946;BME280;50122;56.330;43.838;2023-07-20T22:54:33;99466.09;;;13.23;98.47
63946;BME280;50122;56.330;43.838;2023-07-20T22:56:59;99466.09;;;13.23;98.14
63946;BME280;50122;56.330;43.838;2023-07-20T22:59:26;99466.19;;;13.21;97.68
63946;BME280;50122;56.330;43.838;2023-07-20T23:01:54;99465.56;;;13.17;98.08
63946;BME280;50122;56.330;43.838;2023-07-20T23:04:22;99466.53;;;13.16;98.08
63946;BME280;50122;56.330;43.838;2023-07-20T23:06:50;99464.06;;;13.13;98.09
63946;BME280;50122;56.330;43.838;2023-07-20T23:09:16;99466.94;;;13.10;98.23
63946;BME280;50122;56.330;43.838;2023-07-20T23:11:45;99464.50;;;13.07;98.31
63946;BME280;50122;56.330;43.838;2023-07-20T23:14:12;99475.84;;;13.09;98.50
63946;BME280;50122;56.330;43.838;2023-07-20T23:16:38;99473.09;;;13.11;98.54
63946;BME280;50122;56.330;43.838;2023-07-20T23:19:08;99477.44;;;13.12;98.17
63946;BME280;50122;56.330;43.838;2023-07-20T23:21:35;99477.44;;;13.12;97.96
63946;BME280;50122;56.330;43.838;2023-07-20T23:24:04;99483.38;;;13.15;97.45
63946;BME280;50122;56.330;43.838;2023-07-20T23:26:31;99468.84;;;13.21;97.00
63946;BME280;50122;56.330;43.838;2023-07-20T23:28:58;99474.72;;;13.26;96.80
63946;BME280;50122;56.330;43.838;2023-07-20T23:31:25;99468.84;;;13.21;96.43
63946;BME280;50122;56.330;43.838;2023-07-20T23:33:52;99471.94;;;13.15;96.65
63946;BME280;50122;56.330;43.838;2023-07-20T23:36:18;99478.41;;;13.11;96.58
63946;BME280;50122;56.330;43.838;2023-07-20T23:38:47;99469.38;;;13.13;96.57
63946;BME280;50122;56.330;43.838;2023-07-20T23:41:14;99470.66;;;13.20;96.21
63946;BME280;50122;56.330;43.838;2023-07-20T23:43:41;99468.66;;;13.24;95.84
63946;BME280;50122;56.330;43.838;2023-07-20T23:46:08;99471.09;;;13.27;95.29
63946;BME280;50122;56.330;43.838;2023-07-20T23:48:39;99471.19;;;13.26;95.10
63946;BME280;50122;56.330;43.838;2023-07-20T23:51:10;99476.22;;;13.30;94.78
63946;BME280;50122;56.330;43.838;2023-07-20T23:53:41;99479.59;;;13.32;94.57
63946;BME280;50122;56.330;43.838;2023-07-20T23:56:07;99489.25;;;13.33;94.18
63946;BME280;50122;56.330;43.838;2023-07-20T23:58:36;99484.16;;;13.30;94.00
